createdAt,value
2022-10-17T00:00:39.175Z,17.10
2022-10-17T00:03:10.398Z,17.10
2022-10-17T00:05:44.220Z,17.00
2022-10-17T00:08:15.661Z,17.00
2022-10-17T00:10:43.586Z,17.00
2022-10-17T00:13:12.222Z,17.00
2022-10-17T00:15:45.843Z,17.00
2022-10-17T00:18:13.684Z,17.00
2022-10-17T00:20:44.999Z,16.90
2022-10-17T00:23:12.906Z,16.90
2022-10-17T00:25:41.490Z,16.80
2022-10-17T00:28:10.334Z,16.80
2022-10-17T00:30:38.374Z,16.90
2022-10-17T00:33:06.686Z,16.90
2022-10-17T00:35:34.679Z,16.90
2022-10-17T00:38:03.935Z,16.80
2022-10-17T00:40:34.467Z,16.80
2022-10-17T00:43:02.453Z,16.80
2022-10-17T00:45:30.891Z,16.80
2022-10-17T00:48:01.386Z,16.70
2022-10-17T00:50:29.436Z,16.60
2022-10-17T00:53:00.598Z,16.70
2022-10-17T00:55:32.499Z,16.60
2022-10-17T00:58:02.408Z,16.60
2022-10-17T01:00:30.865Z,16.60
2022-10-17T01:02:59.300Z,16.70
2022-10-17T01:05:27.424Z,16.60
2022-10-17T01:07:56.010Z,16.70
2022-10-17T01:10:29.006Z,16.70
2022-10-17T01:13:08.224Z,16.60
2022-10-17T01:15:49.414Z,16.60
2022-10-17T01:18:24.631Z,16.60
2022-10-17T01:21:24.326Z,16.60
2022-10-17T01:24:15.655Z,16.60
2022-10-17T01:26:56.815Z,16.60
2022-10-17T01:29:39.631Z,16.60
2022-10-17T01:32:13.707Z,16.60
2022-10-17T01:34:46.651Z,16.60
2022-10-17T01:37:17.906Z,16.50
2022-10-17T01:39:47.908Z,16.60
2022-10-17T01:42:19.220Z,16.60
2022-10-17T01:44:49.534Z,16.60
2022-10-17T01:47:20.343Z,16.70
2022-10-17T01:50:02.225Z,16.70
2022-10-17T01:52:37.867Z,16.70
2022-10-17T01:58:59.351Z,16.60
2022-10-17T02:01:28.709Z,16.60
2022-10-17T02:04:01.942Z,16.60
2022-10-17T02:06:31.099Z,16.60
2022-10-17T02:08:59.943Z,16.60
2022-10-17T02:11:29.453Z,16.50
2022-10-17T02:14:16.024Z,16.60
2022-10-17T02:16:49.511Z,16.50
2022-10-17T02:19:37.692Z,16.50
2022-10-17T02:22:12.783Z,16.50
2022-10-17T02:24:45.392Z,16.40
2022-10-17T02:27:15.089Z,16.40
2022-10-17T02:29:47.433Z,16.30
2022-10-17T02:32:18.745Z,16.30
2022-10-17T02:34:50.330Z,16.40
2022-10-17T02:37:20.499Z,16.40
2022-10-17T02:39:51.748Z,16.40
2022-10-17T02:42:20.688Z,16.40
2022-10-17T02:44:48.970Z,16.30
2022-10-17T02:47:21.242Z,16.30
2022-10-17T02:49:51.876Z,16.40
2022-10-17T02:52:22.477Z,16.40
2022-10-17T02:54:53.371Z,16.40
2022-10-17T02:57:24.496Z,16.40
2022-10-17T02:59:52.791Z,16.40
2022-10-17T03:02:20.638Z,16.30
2022-10-17T03:04:49.904Z,16.30
2022-10-17T03:07:17.738Z,16.20
2022-10-17T03:09:45.579Z,16.20
2022-10-17T03:12:13.324Z,16.20
2022-10-17T03:14:42.465Z,16.10
2022-10-17T03:17:10.333Z,16.10
2022-10-17T03:19:38.115Z,16.10
2022-10-17T03:22:07.329Z,16.10
2022-10-17T03:24:35.100Z,16.10
2022-10-17T03:27:02.968Z,16.00
2022-10-17T03:29:30.785Z,15.80
2022-10-17T03:31:58.676Z,15.70
2022-10-17T03:34:26.543Z,15.70
2022-10-17T03:36:54.333Z,15.60
2022-10-17T03:39:23.591Z,15.70
2022-10-17T03:41:51.573Z,15.60
2022-10-17T03:44:19.542Z,15.70
2022-10-17T03:46:49.070Z,15.70
2022-10-17T03:49:24.472Z,15.70
2022-10-17T03:51:52.348Z,15.70
2022-10-17T03:54:20.160Z,15.70
2022-10-17T03:56:49.478Z,15.70
2022-10-17T03:59:17.594Z,15.80
2022-10-17T04:01:45.490Z,15.80
2022-10-17T04:04:31.304Z,15.80
2022-10-17T04:10:07.762Z,15.80
2022-10-17T04:12:36.986Z,15.80
2022-10-17T04:15:05.011Z,15.80
2022-10-17T04:17:37.258Z,15.70
2022-10-17T04:20:06.478Z,15.70
2022-10-17T04:22:34.361Z,15.70
2022-10-17T04:25:02.189Z,15.60
2022-10-17T04:27:30.027Z,15.50
2022-10-17T04:29:59.119Z,15.50
2022-10-17T04:32:27.228Z,15.50
2022-10-17T04:34:55.435Z,15.50
2022-10-17T04:37:23.223Z,15.50
2022-10-17T04:39:51.023Z,15.50
2022-10-17T04:42:18.885Z,15.50
2022-10-17T04:44:46.668Z,15.40
2022-10-17T04:47:15.809Z,15.40
2022-10-17T04:49:43.584Z,15.40
2022-10-17T04:52:11.417Z,15.40
2022-10-17T04:54:39.256Z,15.40
2022-10-17T04:57:07.044Z,15.40
2022-10-17T04:59:34.885Z,15.50
2022-10-17T05:02:02.699Z,15.50
2022-10-17T05:04:34.970Z,15.50
2022-10-17T05:07:02.790Z,15.50
2022-10-17T05:09:36.086Z,15.50
2022-10-17T05:12:06.665Z,15.50
2022-10-17T05:14:52.608Z,15.40
2022-10-17T05:17:30.418Z,15.40
2022-10-17T05:29:43.825Z,15.30
2022-10-17T05:32:11.547Z,15.30
2022-10-17T05:34:40.136Z,15.30
2022-10-17T05:37:09.405Z,15.40
2022-10-17T05:39:37.359Z,15.40
2022-10-17T05:42:05.522Z,15.30
2022-10-17T05:44:42.661Z,15.30
2022-10-17T05:47:11.467Z,15.20
2022-10-17T05:50:00.926Z,15.30
2022-10-17T05:52:31.053Z,15.30
2022-10-17T05:55:00.894Z,15.30
2022-10-17T05:57:30.792Z,15.30
2022-10-17T05:59:58.628Z,15.30
2022-10-17T06:02:26.552Z,15.30
2022-10-17T06:05:17.446Z,15.30
2022-10-17T06:07:46.973Z,15.20
2022-10-17T06:10:16.687Z,15.10
2022-10-17T06:12:47.325Z,15.10
2022-10-17T06:15:15.311Z,15.10
2022-10-17T06:17:43.161Z,15.10
2022-10-17T06:20:11.239Z,15.00
2022-10-17T06:22:39.076Z,15.00
2022-10-17T06:25:09.257Z,15.10
2022-10-17T06:27:36.991Z,15.10
2022-10-17T06:30:05.220Z,15.20
2022-10-17T06:32:33.022Z,15.20
2022-10-17T06:35:00.844Z,15.30
2022-10-17T06:37:35.304Z,15.40
2022-10-17T06:40:05.182Z,15.50
2022-10-17T06:42:34.454Z,15.50
2022-10-17T06:45:02.266Z,15.50
2022-10-17T06:47:30.255Z,15.60
2022-10-17T06:49:58.276Z,15.60
2022-10-17T06:52:26.513Z,15.70
2022-10-17T06:54:54.392Z,15.90
2022-10-17T06:57:22.294Z,15.90
2022-10-17T06:59:51.588Z,15.90
2022-10-17T07:02:20.440Z,16.00
2022-10-17T07:04:48.279Z,16.10
2022-10-17T07:07:16.192Z,16.10
2022-10-17T07:09:43.941Z,16.20
2022-10-17T07:12:12.791Z,16.20
2022-10-17T07:14:40.603Z,16.30
2022-10-17T07:17:10.495Z,16.50
2022-10-17T07:19:38.330Z,16.50
2022-10-17T07:22:06.114Z,16.60
2022-10-17T07:24:33.899Z,16.90
2022-10-17T07:27:01.709Z,17.00
2022-10-17T07:29:29.911Z,17.20
2022-10-17T07:31:57.697Z,17.30
2022-10-17T07:34:30.721Z,17.50
2022-10-17T07:36:58.518Z,17.60
2022-10-17T07:39:26.452Z,17.70
2022-10-17T07:41:54.273Z,18.00
2022-10-17T07:44:22.210Z,18.30
2022-10-17T07:46:50.060Z,18.40
2022-10-17T07:49:17.840Z,18.60
2022-10-17T07:51:48.608Z,18.80
2022-10-17T07:54:16.502Z,18.90
2022-10-17T07:56:44.280Z,19.00
2022-10-17T07:59:16.141Z,19.10
2022-10-17T08:01:46.875Z,19.20
2022-10-17T08:04:16.764Z,19.20
2022-10-17T08:06:44.612Z,19.30
2022-10-17T08:09:13.755Z,19.30
2022-10-17T08:11:44.201Z,19.40
2022-10-17T08:14:26.660Z,19.40
2022-10-17T08:16:55.508Z,19.60
2022-10-17T08:19:23.352Z,19.70
2022-10-17T08:21:52.330Z,19.80
2022-10-17T08:24:21.817Z,20.00
2022-10-17T08:26:51.707Z,20.10
2022-10-17T08:29:20.434Z,20.30
2022-10-17T08:31:49.921Z,20.50
2022-10-17T08:34:19.081Z,20.60
2022-10-17T08:36:46.866Z,20.80
2022-10-17T08:39:14.732Z,21.00
2022-10-17T08:41:51.879Z,21.20
2022-10-17T08:44:26.328Z,21.30
2022-10-17T08:46:57.152Z,21.60
2022-10-17T08:49:29.512Z,21.90
2022-10-17T08:52:00.218Z,22.20
2022-10-17T08:54:32.477Z,22.40
2022-10-17T08:57:02.115Z,22.50
2022-10-17T08:59:30.929Z,22.60
2022-10-17T09:02:11.631Z,22.70
2022-10-17T09:04:44.082Z,22.90
2022-10-17T09:07:17.483Z,23.10
2022-10-17T09:09:52.080Z,23.20
2022-10-17T09:12:24.233Z,23.50
2022-10-17T09:14:58.927Z,23.70
2022-10-17T09:17:33.912Z,24.10
2022-10-17T09:20:03.045Z,24.30
2022-10-17T09:22:34.710Z,24.60
2022-10-17T09:25:04.338Z,24.80
2022-10-17T09:27:36.583Z,24.90
2022-10-17T09:30:40.107Z,25.00
2022-10-17T09:33:23.087Z,25.10
2022-10-17T09:36:00.209Z,25.20
2022-10-17T09:38:31.303Z,25.30
2022-10-17T09:41:01.863Z,25.40
2022-10-17T09:43:35.053Z,25.50
2022-10-17T09:46:08.843Z,25.50
2022-10-17T09:48:38.965Z,25.70
2022-10-17T09:51:21.955Z,25.70
2022-10-17T09:53:56.985Z,25.80
2022-10-17T09:56:24.962Z,25.90
2022-10-17T09:58:59.144Z,26.00
2022-10-17T10:01:29.049Z,26.00
2022-10-17T10:04:12.810Z,26.00
2022-10-17T10:06:45.560Z,26.10
2022-10-17T10:09:24.004Z,26.10
2022-10-17T10:11:54.643Z,26.20
2022-10-17T10:14:33.589Z,26.30
2022-10-17T10:17:03.709Z,26.40
2022-10-17T10:19:32.247Z,26.40
2022-10-17T10:22:01.537Z,26.40
2022-10-17T10:24:32.683Z,26.40
2022-10-17T10:27:01.415Z,26.30
2022-10-17T10:29:32.629Z,26.30
2022-10-17T10:32:10.069Z,26.30
2022-10-17T10:34:42.745Z,26.30
2022-10-17T10:37:17.496Z,26.30
2022-10-17T10:39:48.701Z,26.30
2022-10-17T10:42:32.640Z,26.30
2022-10-17T10:45:03.667Z,26.40
2022-10-17T10:47:32.447Z,26.40
2022-10-17T10:50:26.222Z,26.30
2022-10-17T10:52:58.627Z,26.40
2022-10-17T10:55:29.600Z,26.40
2022-10-17T10:57:59.508Z,26.60
2022-10-17T11:00:30.308Z,26.80
2022-10-17T11:03:02.027Z,26.90
2022-10-17T11:05:37.698Z,27.10
2022-10-17T11:08:10.151Z,27.10
2022-10-17T11:10:44.472Z,27.10
2022-10-17T11:13:14.850Z,27.20
2022-10-17T11:15:48.242Z,27.20
2022-10-17T11:18:37.166Z,27.30
2022-10-17T11:21:07.760Z,27.40
2022-10-17T11:23:39.612Z,27.40
2022-10-17T11:26:09.627Z,27.50
2022-10-17T11:28:37.593Z,27.50
2022-10-17T11:31:08.805Z,27.60
2022-10-17T11:33:43.192Z,27.70
2022-10-17T11:36:13.890Z,27.80
2022-10-17T11:38:44.433Z,27.80
2022-10-17T11:41:14.176Z,27.70
2022-10-17T11:43:50.158Z,27.80
2022-10-17T11:46:23.810Z,27.80
2022-10-17T11:49:03.641Z,27.80
2022-10-17T11:54:26.273Z,27.80
2022-10-17T11:57:01.306Z,27.60
2022-10-17T11:59:44.253Z,27.50
2022-10-17T12:02:16.056Z,27.40
2022-10-17T12:04:51.951Z,27.50
2022-10-17T12:07:23.558Z,27.60
2022-10-17T12:09:55.058Z,27.60
2022-10-17T12:12:27.895Z,27.70
2022-10-17T12:14:56.267Z,27.70
2022-10-17T12:17:32.931Z,27.80
2022-10-17T12:20:19.668Z,27.90
2022-10-17T12:22:48.186Z,27.90
2022-10-17T12:25:19.000Z,28.00
2022-10-17T12:27:47.954Z,28.00
2022-10-17T12:30:20.612Z,28.10
2022-10-17T12:33:07.381Z,28.20
2022-10-17T12:35:36.649Z,28.20
2022-10-17T12:38:16.313Z,28.30
2022-10-17T12:40:54.465Z,28.30
2022-10-17T12:43:44.019Z,28.30
2022-10-17T12:46:14.103Z,28.30
2022-10-17T12:49:02.614Z,28.40
2022-10-17T12:51:37.419Z,28.40
2022-10-17T12:54:12.033Z,28.30
2022-10-17T12:56:41.139Z,28.20
2022-10-17T12:59:10.794Z,28.10
2022-10-17T13:01:40.012Z,28.20
2022-10-17T13:04:11.811Z,28.10
2022-10-17T13:06:40.619Z,28.10
2022-10-17T13:09:10.912Z,28.00
2022-10-17T13:11:40.440Z,28.00
2022-10-17T13:14:13.658Z,28.00
2022-10-17T13:16:46.026Z,27.90
2022-10-17T13:19:16.411Z,27.80
2022-10-17T13:21:50.803Z,27.90
2022-10-17T13:24:22.370Z,27.90
2022-10-17T13:26:52.741Z,28.00
2022-10-17T13:29:21.997Z,28.10
2022-10-17T13:31:53.129Z,28.20
2022-10-17T13:34:23.261Z,28.30
2022-10-17T13:36:53.941Z,28.30
2022-10-17T13:39:38.184Z,28.20
2022-10-17T13:42:29.069Z,28.10
2022-10-17T13:44:59.035Z,28.00
2022-10-17T13:47:28.108Z,28.00
2022-10-17T13:50:43.027Z,28.00
2022-10-17T13:53:19.065Z,28.00
2022-10-17T13:56:15.680Z,28.10
2022-10-17T13:58:46.630Z,28.10
2022-10-17T14:01:14.993Z,28.20
2022-10-17T14:03:48.765Z,28.30
2022-10-17T14:06:19.274Z,28.50
2022-10-17T14:08:50.075Z,28.50
2022-10-17T14:11:22.101Z,28.50
2022-10-17T14:13:51.275Z,28.40
2022-10-17T14:16:19.309Z,28.30
2022-10-17T14:18:49.329Z,28.30
2022-10-17T14:21:43.901Z,28.20
2022-10-17T14:24:17.821Z,28.20
2022-10-17T14:26:50.552Z,28.10
2022-10-17T14:29:25.703Z,28.00
2022-10-17T14:31:59.628Z,28.00
2022-10-17T14:34:29.394Z,28.10
2022-10-17T14:36:58.374Z,28.00
2022-10-17T14:39:28.565Z,28.00
2022-10-17T14:41:59.639Z,28.10
2022-10-17T14:44:31.862Z,28.20
2022-10-17T14:47:05.916Z,28.10
2022-10-17T14:49:41.937Z,28.00
2022-10-17T14:52:17.684Z,27.90
2022-10-17T14:54:48.719Z,27.90
2022-10-17T14:57:18.302Z,27.70
2022-10-17T14:59:55.077Z,27.60
2022-10-17T15:02:23.499Z,27.50
2022-10-17T15:04:51.434Z,27.40
2022-10-17T15:07:21.033Z,27.30
2022-10-17T15:09:50.945Z,27.20
2022-10-17T15:12:20.070Z,27.10
2022-10-17T15:14:49.034Z,27.00
2022-10-17T15:17:18.623Z,26.90
2022-10-17T15:19:50.941Z,26.90
2022-10-17T15:22:19.373Z,26.90
2022-10-17T15:24:47.610Z,26.80
2022-10-17T15:27:18.408Z,26.80
2022-10-17T15:32:20.951Z,26.50
2022-10-17T15:34:48.868Z,26.50
2022-10-17T15:37:18.928Z,26.40
2022-10-17T15:39:52.973Z,26.20
2022-10-17T15:42:22.731Z,26.20
2022-10-17T15:44:59.743Z,26.20
2022-10-17T15:47:29.245Z,26.10
2022-10-17T15:49:57.597Z,26.10
2022-10-17T15:52:28.454Z,26.00
2022-10-17T15:54:58.498Z,25.90
2022-10-17T15:57:31.042Z,25.80
2022-10-17T15:59:59.996Z,25.70
2022-10-17T16:02:27.996Z,25.70
2022-10-17T16:04:55.837Z,25.70
2022-10-17T16:07:23.675Z,25.60
2022-10-17T16:09:51.499Z,25.60
2022-10-17T16:14:51.926Z,25.50
2022-10-17T16:17:19.737Z,25.50
2022-10-17T16:19:47.591Z,25.40
2022-10-17T16:22:21.101Z,25.30
2022-10-17T16:24:48.948Z,25.30
2022-10-17T16:27:16.788Z,25.20
2022-10-17T16:29:44.848Z,25.20
2022-10-17T16:32:14.036Z,25.00
2022-10-17T16:34:41.865Z,25.00
2022-10-17T16:37:09.921Z,24.80
2022-10-17T16:39:37.900Z,24.80
2022-10-17T16:42:05.855Z,24.80
2022-10-17T16:44:33.711Z,24.70
2022-10-17T16:47:01.529Z,24.70
2022-10-17T16:49:30.773Z,24.70
2022-10-17T16:51:58.938Z,24.70
2022-10-17T16:54:26.991Z,24.60
2022-10-17T16:56:54.774Z,24.60
2022-10-17T16:59:22.797Z,24.60
2022-10-17T17:01:50.893Z,24.50
2022-10-17T17:04:18.843Z,24.40
2022-10-17T17:06:48.245Z,24.40
2022-10-17T17:09:16.203Z,24.30
2022-10-17T17:11:44.094Z,24.30
2022-10-17T17:14:11.998Z,24.20
2022-10-17T17:16:40.075Z,24.20
2022-10-17T17:19:09.637Z,24.20
2022-10-17T17:21:37.731Z,24.20
2022-10-17T17:24:07.188Z,24.20
2022-10-17T17:26:36.199Z,24.10
2022-10-17T17:29:04.174Z,24.10
2022-10-17T17:31:35.592Z,24.00
2022-10-17T17:34:03.700Z,24.00
2022-10-17T17:36:32.496Z,23.90
2022-10-17T17:39:04.026Z,23.80
2022-10-17T17:41:33.599Z,23.80
2022-10-17T17:44:01.947Z,23.70
2022-10-17T17:46:29.767Z,23.70
2022-10-17T17:48:57.705Z,23.70
2022-10-17T17:51:28.269Z,23.60
2022-10-17T17:53:57.272Z,23.60
2022-10-17T17:56:25.874Z,23.50
2022-10-17T17:58:57.629Z,23.50
2022-10-17T18:01:26.442Z,23.40
2022-10-17T18:03:54.836Z,23.30
2022-10-17T18:06:23.455Z,23.30
2022-10-17T18:08:52.066Z,23.30
2022-10-17T18:11:22.498Z,23.30
2022-10-17T18:13:55.689Z,23.30
2022-10-17T18:16:23.726Z,23.30
2022-10-17T18:18:51.641Z,23.30
2022-10-17T18:21:19.588Z,23.30
2022-10-17T18:23:48.605Z,23.30
2022-10-17T18:26:16.590Z,23.20
2022-10-17T18:28:44.800Z,23.10
2022-10-17T18:31:15.372Z,23.10
2022-10-17T18:33:44.646Z,23.10
2022-10-17T18:36:13.518Z,23.10
2022-10-17T18:38:41.861Z,23.10
2022-10-17T18:41:10.893Z,23.10
2022-10-17T18:43:39.531Z,23.10
2022-10-17T18:46:12.292Z,23.10
2022-10-17T18:48:45.326Z,23.10
2022-10-17T18:51:13.863Z,23.10
2022-10-17T18:53:41.993Z,23.00
2022-10-17T18:56:10.571Z,23.00
2022-10-17T18:58:38.573Z,23.00
2022-10-17T19:01:07.128Z,23.00
2022-10-17T19:03:41.146Z,22.90
2022-10-17T19:06:12.597Z,22.80
2022-10-17T19:08:41.028Z,22.80
2022-10-17T19:11:09.213Z,22.80
2022-10-17T19:13:37.272Z,22.80
2022-10-17T19:16:06.269Z,22.80
2022-10-17T19:18:34.126Z,22.80
2022-10-17T19:21:02.951Z,22.80
2022-10-17T19:23:32.419Z,22.80
2022-10-17T19:26:02.563Z,22.80
2022-10-17T19:28:30.543Z,22.80
2022-10-17T19:30:58.467Z,22.80
2022-10-17T19:33:26.434Z,22.80
2022-10-17T19:35:58.999Z,22.80
2022-10-17T19:38:27.040Z,22.70
2022-10-17T19:40:56.246Z,22.70
2022-10-17T19:43:24.344Z,22.70
2022-10-17T19:45:55.584Z,22.70
2022-10-17T19:48:23.374Z,22.70
2022-10-17T19:50:51.602Z,22.70
2022-10-17T19:53:19.892Z,22.60
2022-10-17T19:55:48.292Z,22.60
2022-10-17T19:58:21.570Z,22.50
2022-10-17T20:00:49.613Z,22.50
2022-10-17T20:03:17.426Z,22.50
2022-10-17T20:05:45.284Z,22.50
2022-10-17T20:08:13.210Z,22.50
2022-10-17T20:10:41.236Z,22.40
2022-10-17T20:13:09.335Z,22.50
2022-10-17T20:15:38.570Z,22.50
2022-10-17T20:18:06.916Z,22.40
2022-10-17T20:20:35.184Z,22.40
2022-10-17T20:23:03.786Z,22.40
2022-10-17T20:25:33.445Z,22.50
2022-10-17T20:28:01.304Z,22.50
2022-10-17T20:30:29.187Z,22.40
2022-10-17T20:33:01.302Z,22.40
2022-10-17T20:35:29.149Z,22.30
2022-10-17T20:37:56.932Z,22.30
2022-10-17T20:40:39.969Z,22.30
2022-10-17T20:43:09.291Z,22.20
2022-10-17T20:45:50.867Z,22.20
2022-10-17T20:48:21.173Z,22.20
2022-10-17T20:50:48.996Z,22.20
2022-10-17T20:53:37.131Z,22.20
2022-10-17T20:56:05.213Z,22.10
2022-10-17T20:58:32.946Z,22.10
2022-10-17T21:01:05.442Z,22.00
2022-10-17T21:03:38.774Z,22.00
2022-10-17T21:06:09.836Z,22.00
2022-10-17T21:08:37.688Z,21.90
2022-10-17T21:11:12.188Z,21.90
2022-10-17T21:13:40.242Z,21.90
2022-10-17T21:16:11.368Z,21.80
2022-10-17T21:18:41.017Z,21.80
2022-10-17T21:21:12.922Z,21.80
2022-10-17T21:23:41.029Z,21.70
2022-10-17T21:26:09.949Z,21.70
2022-10-17T21:28:38.051Z,21.70
2022-10-17T21:31:13.253Z,21.70
2022-10-17T21:33:47.322Z,21.70
2022-10-17T21:36:16.764Z,21.70
2022-10-17T21:38:47.309Z,21.80
2022-10-17T21:41:17.893Z,21.70
2022-10-17T21:43:45.675Z,21.70
2022-10-17T21:46:14.607Z,21.80
2022-10-17T21:48:42.760Z,21.70
2022-10-17T21:51:12.414Z,21.70
2022-10-17T21:53:40.368Z,21.70
2022-10-17T21:56:09.092Z,21.80
2022-10-17T21:58:37.151Z,21.70
2022-10-17T22:01:06.884Z,21.80
2022-10-17T22:03:36.404Z,21.80
2022-10-17T22:06:12.813Z,21.70
2022-10-17T22:08:54.507Z,21.70
2022-10-17T22:11:23.304Z,21.70
2022-10-17T22:13:54.331Z,21.70
2022-10-17T22:16:22.077Z,21.70
2022-10-17T22:18:49.933Z,21.70
2022-10-17T22:21:19.143Z,21.70
2022-10-17T22:23:47.627Z,21.70
2022-10-17T22:26:16.870Z,21.70
2022-10-17T22:28:44.688Z,21.70
2022-10-17T22:31:12.799Z,21.70
2022-10-17T22:33:40.983Z,21.70
2022-10-17T22:36:09.312Z,21.70
2022-10-17T22:38:37.256Z,21.70
2022-10-17T22:41:05.101Z,21.70
2022-10-17T22:43:34.220Z,21.70
2022-10-17T22:46:02.997Z,21.50
2022-10-17T22:48:30.927Z,21.60
2022-10-17T22:50:59.788Z,21.60
2022-10-17T22:53:29.311Z,21.60
2022-10-17T22:55:57.900Z,21.60
2022-10-17T22:58:26.017Z,21.70
2022-10-17T23:00:55.706Z,21.70
2022-10-17T23:03:24.392Z,21.60
2022-10-17T23:05:52.342Z,21.60
2022-10-17T23:08:20.422Z,21.60
2022-10-17T23:10:48.465Z,21.60
2022-10-17T23:13:16.794Z,21.60
2022-10-17T23:15:44.554Z,21.70
2022-10-17T23:18:13.820Z,21.70
2022-10-17T23:20:41.616Z,21.70
2022-10-17T23:23:09.422Z,21.60
2022-10-17T23:25:37.220Z,21.60
2022-10-17T23:28:05.146Z,21.50
2022-10-17T23:30:33.083Z,21.50
2022-10-17T23:33:00.941Z,21.50
2022-10-17T23:35:30.222Z,21.50
2022-10-17T23:37:58.176Z,21.50
2022-10-17T23:40:26.007Z,21.50
2022-10-17T23:42:53.782Z,21.50
2022-10-17T23:45:21.627Z,21.40
2022-10-17T23:47:49.464Z,21.40
2022-10-17T23:50:17.415Z,21.30
2022-10-17T23:52:46.716Z,21.30
2022-10-17T23:55:14.509Z,21.30
2022-10-17T23:57:42.376Z,21.30
